Estació municipal de Cànoves i Samalús (Vallès Oriental, P.N.del Montseny)

Consulta les dades en temps real de l'estació municipal de Cànoves i Samalús





Hora UTC 03:35
Temperatura 7.5 ºC
Humitat 96.5 %
Pressió 1009.8 hPa
Pluja 0.0 mm
Velocitat vent 3.8 km/h
Direcció vent NNW
Radiació solar 0.1 W/m²

Webcam

Dades diàries 2026-05-06



Hora UTC (hivern +1h; estiu +2h)
Temperatura (ºC) Humitat (%) Pressió (hPa) Velocitat vent (km/h) Precipitació (mm) Radiació solar (W/m²)
Hora UTC Aire Humitat Pressió Vel. Dir. Vel. Max Dir. Intent. màx 5 min. Rad. Sol.
00:05 9.3 93.0 1009.9 3.1 NNW 3.1 NNW 0.0 0.1
00:10 9.2 93.2 1009.9 5.0 NNW 8.8 NNW 0.0 0.1
00:15 9.1 93.5 1009.8 5.9 NNW 8.8 NW 0.0 0.1
00:20 9.2 94.1 1009.8 6.3 NNW 9.5 NNW 0.0 0.1
00:25 9.0 93.9 1009.7 4.6 NNW 8.8 N 0.0 0.1
00:30 9.1 94.5 1009.7 5.0 NNW 8.1 N 0.0 0.1
00:35 9.1 94.6 1009.7 5.3 N 8.8 NNE 0.0 0.1
00:40 9.0 94.3 1009.7 4.2 NNW 6.7 N 0.0 0.1
00:45 9.2 94.7 1009.7 4.9 NNW 8.1 N 0.0 0.1
00:50 8.9 94.3 1009.7 5.0 NNW 7.1 NNW 0.0 0.1
00:55 8.8 94.3 1009.7 3.9 NNW 6.0 NNW 0.0 0.1
01:00 8.6 94.4 1009.7 3.8 NNW 4.9 NNW 0.0 0.1
01:05 8.7 94.9 1009.6 5.1 NNW 6.7 NNW 0.0 0.1
01:10 8.7 94.9 1009.6 4.6 NNW 7.8 NNW 0.0 0.1
01:15 8.5 94.8 1009.6 4.0 NNW 5.6 N 0.0 0.1
01:20 8.3 94.6 1009.5 3.6 NNW 5.6 NNW 0.0 0.1
01:25 8.3 95.1 1009.6 4.8 NNW 7.8 NW 0.0 0.1
01:30 8.5 95.5 1009.5 6.1 NNW 8.8 NNW 0.0 0.1
01:35 8.5 95.6 1009.6 7.4 NNW 12.0 NNW 0.0 0.1
01:40 8.6 95.6 1009.5 5.9 NNW 8.5 N 0.0 0.1
01:45 8.6 95.3 1009.5 4.6 NNW 6.7 N 0.0 0.1
01:50 8.5 95.4 1009.5 4.3 NNW 6.0 NNW 0.0 0.1
01:55 8.4 95.3 1009.4 4.5 NNW 6.4 NNW 0.0 0.1
02:00 8.3 95.5 1009.4 4.9 NNW 6.7 NNW 0.0 0.1
02:05 8.3 95.5 1009.5 0.9 N 4.6 NNE 0.0 0.1
02:10 8.1 95.4 1009.4 4.4 N 8.5 NNW 0.0 0.1
02:15 8.1 95.6 1009.5 2.7 N 6.4 N 0.0 0.1
02:20 8.0 95.5 1009.6 2.4 NNW 4.6 N 0.0 0.1
02:25 7.9 95.6 1009.7 4.7 NW 7.4 NW 0.0 0.1
02:30 7.9 95.7 1009.7 4.7 NNW 7.8 NNW 0.0 0.1
02:35 8.0 96.1 1009.7 4.0 N 7.1 N 0.0 0.1
02:40 8.0 95.8 1009.7 2.4 NNW 3.9 NW 0.0 0.1
02:45 7.8 95.7 1009.8 3.5 NNW 6.4 NW 0.0 0.1
02:50 7.8 96.0 1009.8 5.1 NNW 6.7 NW 0.0 0.1
02:55 7.9 96.2 1009.8 5.2 NW 7.8 NW 0.0 0.1
03:00 8.0 96.3 1009.8 4.5 NNW 5.6 NNW 0.0 0.1
03:05 8.0 96.1 1009.8 1.5 NNW 4.9 NNW 0.0 0.1
03:10 7.7 95.7 1009.8 0.3 NNE 2.1 NNE 0.0 0.1
03:15 7.4 95.6 1009.8 2.6 NNW 3.9 NW 0.0 0.1
03:20 7.3 95.9 1009.8 2.9 NNW 4.6 NW 0.0 0.1
03:25 7.3 96.1 1009.8 4.5 NW 6.0 NNW 0.0 0.1
03:30 7.5 96.5 1009.8 5.0 NNW 7.1 NNW 0.0 0.1
03:35 7.5 96.5 1009.8 3.8 NNW 5.3 NNW 0.0 0.1
Màxima 9.3 96.5 1009.9 7.4 NNW 12.0 NNW 0.0 0.1
Mínima 7.3 93.0 1009.4
Total 0.0